PILOTS ONLINE: 415    ATC ONLINE: 71

KCDC

Cedar City Regional Airport

Location

IATA CDC
City Cedar City
Country  United States
Latitude 37° 42' 3" N
Longitude 113° 5' 56" W
Elevation 5622 ft
Type Medium Airport

Map

Weather

METAR
2014/10/23 14:53
KCDC 231453Z AUTO 00000KT 10SM CLR 06/M01 A3024 RMK AO2 SLP211 T00561006 53010 TSNO
TAF
2014/10/23 12:24
TAF KCDC 231120Z 2312/2412 VRB03KT P6SM SKC 
     FM231800 22010G16KT P6SM SCT200 
     FM240300 VRB03KT P6SM SCT200

Runways

02/20 8653 ft / 150 ft
08/26 4822 ft / 60 ft

Outbound flights

Callsign Flying to Pilot ATD/STD ETA Aircraft

Inbound flights

Callsign Flying from Pilot ATD ETA Aircraft